sensor_id;sensor_type;location;lat;lon;timestamp;pressure;altitude;pressure_sealevel;temperature;humidity
61113;BME280;47184;57.998;56.184;2023-08-06T00:00:22;99860.44;;;20.86;75.47
61113;BME280;47184;57.998;56.184;2023-08-06T00:02:48;99870.16;;;20.87;75.58
61113;BME280;47184;57.998;56.184;2023-08-06T00:05:15;99877.03;;;20.83;75.71
61113;BME280;47184;57.998;56.184;2023-08-06T00:07:48;99881.78;;;20.81;75.96
61113;BME280;47184;57.998;56.184;2023-08-06T00:10:14;99813.78;;;20.45;75.99
61113;BME280;47184;57.998;56.184;2023-08-06T00:12:40;99876.22;;;20.82;75.84
61113;BME280;47184;57.998;56.184;2023-08-06T00:15:07;99877.22;;;20.81;75.92
61113;BME280;47184;57.998;56.184;2023-08-06T00:17:34;99800.59;;;20.32;76.01
61113;BME280;47184;57.998;56.184;2023-08-06T00:20:01;99879.78;;;20.76;76.26
61113;BME280;47184;57.998;56.184;2023-08-06T00:22:33;99882.25;;;20.77;76.43
61113;BME280;47184;57.998;56.184;2023-08-06T00:25:00;99883.66;;;20.80;76.42
61113;BME280;47184;57.998;56.184;2023-08-06T00:27:27;99881.22;;;20.78;76.51
61113;BME280;47184;57.998;56.184;2023-08-06T00:29:53;99885.97;;;20.76;76.48
61113;BME280;47184;57.998;56.184;2023-08-06T00:32:19;99888.44;;;20.78;76.63
61113;BME280;47184;57.998;56.184;2023-08-06T00:34:45;99877.94;;;20.76;76.35
61113;BME280;47184;57.998;56.184;2023-08-06T00:37:13;99895.69;;;20.89;76.49
61113;BME280;47184;57.998;56.184;2023-08-06T00:39:39;99889.63;;;20.94;76.39
61113;BME280;47184;57.998;56.184;2023-08-06T00:42:05;99874.69;;;20.86;76.28
61113;BME280;47184;57.998;56.184;2023-08-06T00:44:32;99901.41;;;20.93;76.54
61113;BME280;47184;57.998;56.184;2023-08-06T00:46:58;99888.94;;;20.87;76.61
61113;BME280;47184;57.998;56.184;2023-08-06T00:49:24;99890.81;;;20.86;76.75
61113;BME280;47184;57.998;56.184;2023-08-06T00:51:50;99900.50;;;20.99;76.38
61113;BME280;47184;57.998;56.184;2023-08-06T00:54:17;99897.94;;;21.04;76.50
61113;BME280;47184;57.998;56.184;2023-08-06T00:56:43;99902.16;;;21.12;76.52
61113;BME280;47184;57.998;56.184;2023-08-06T00:59:10;99897.25;;;21.20;76.15
61113;BME280;47184;57.998;56.184;2023-08-06T01:01:37;99907.28;;;21.25;75.77
61113;BME280;47184;57.998;56.184;2023-08-06T01:04:03;99904.03;;;21.23;75.67
61113;BME280;47184;57.998;56.184;2023-08-06T01:09:19;99906.56;;;21.06;75.82
61113;BME280;47184;57.998;56.184;2023-08-06T01:12:05;99902.72;;;21.02;75.82
61113;BME280;47184;57.998;56.184;2023-08-06T01:16:58;99900.03;;;21.02;75.36
61113;BME280;47184;57.998;56.184;2023-08-06T01:19:25;99885.66;;;20.85;75.71
61113;BME280;47184;57.998;56.184;2023-08-06T01:21:51;99872.19;;;20.73;75.91
61113;BME280;47184;57.998;56.184;2023-08-06T01:24:17;99903.75;;;20.89;76.27
61113;BME280;47184;57.998;56.184;2023-08-06T01:26:55;99871.38;;;20.72;76.55
61113;BME280;47184;57.998;56.184;2023-08-06T01:29:25;99903.66;;;20.96;76.79
61113;BME280;47184;57.998;56.184;2023-08-06T01:31:55;99891.03;;;20.96;76.64
61113;BME280;47184;57.998;56.184;2023-08-06T01:34:25;99899.81;;;21.15;76.44
61113;BME280;47184;57.998;56.184;2023-08-06T01:36:53;99903.78;;;21.24;76.20
61113;BME280;47184;57.998;56.184;2023-08-06T01:39:20;99911.53;;;21.33;75.85
61113;BME280;47184;57.998;56.184;2023-08-06T01:41:49;99911.19;;;21.41;75.95
61113;BME280;47184;57.998;56.184;2023-08-06T01:44:15;99864.69;;;21.28;75.62
61113;BME280;47184;57.998;56.184;2023-08-06T01:46:41;99904.84;;;21.70;74.94
61113;BME280;47184;57.998;56.184;2023-08-06T01:49:07;99903.66;;;21.90;74.45
61113;BME280;47184;57.998;56.184;2023-08-06T01:51:33;99912.75;;;22.00;74.31
61113;BME280;47184;57.998;56.184;2023-08-06T01:53:59;99875.38;;;21.75;74.14
61113;BME280;47184;57.998;56.184;2023-08-06T01:56:25;99912.06;;;21.82;74.19
61113;BME280;47184;57.998;56.184;2023-08-06T01:58:51;99907.31;;;21.72;74.40
61113;BME280;47184;57.998;56.184;2023-08-06T02:01:17;99907.91;;;21.62;74.68
61113;BME280;47184;57.998;56.184;2023-08-06T02:03:44;99918.44;;;21.64;75.01
61113;BME280;47184;57.998;56.184;2023-08-06T02:06:10;99905.78;;;21.76;75.27
61113;BME280;47184;57.998;56.184;2023-08-06T02:08:36;99902.75;;;21.84;74.97
61113;BME280;47184;57.998;56.184;2023-08-06T02:11:02;99877.41;;;21.68;74.50
61113;BME280;47184;57.998;56.184;2023-08-06T02:13:31;99891.50;;;21.75;74.54
61113;BME280;47184;57.998;56.184;2023-08-06T02:15:57;99879.94;;;21.75;74.61
61113;BME280;47184;57.998;56.184;2023-08-06T02:18:25;99843.19;;;21.52;74.47
61113;BME280;47184;57.998;56.184;2023-08-06T02:20:58;99892.72;;;21.68;74.62
61113;BME280;47184;57.998;56.184;2023-08-06T02:23:25;99885.59;;;21.62;74.97
61113;BME280;47184;57.998;56.184;2023-08-06T02:26:02;99883.16;;;21.48;74.93
61113;BME280;47184;57.998;56.184;2023-08-06T02:28:29;99863.53;;;21.36;75.02
61113;BME280;47184;57.998;56.184;2023-08-06T02:30:55;99863.41;;;21.31;75.02
61113;BME280;47184;57.998;56.184;2023-08-06T02:33:21;99874.16;;;21.31;75.48
61113;BME280;47184;57.998;56.184;2023-08-06T02:35:48;99890.47;;;21.30;75.95
61113;BME280;47184;57.998;56.184;2023-08-06T02:38:14;99903.22;;;21.34;75.86
61113;BME280;47184;57.998;56.184;2023-08-06T02:40:45;99892.72;;;21.44;75.88
61113;BME280;47184;57.998;56.184;2023-08-06T02:43:12;99892.72;;;21.56;75.52
61113;BME280;47184;57.998;56.184;2023-08-06T02:45:38;99861.19;;;21.51;75.56
61113;BME280;47184;57.998;56.184;2023-08-06T02:48:05;99871.56;;;21.60;74.87
61113;BME280;47184;57.998;56.184;2023-08-06T02:50:40;99876.94;;;21.60;74.94
61113;BME280;47184;57.998;56.184;2023-08-06T02:53:08;99895.94;;;21.82;74.46
61113;BME280;47184;57.998;56.184;2023-08-06T02:55:35;99900.38;;;21.88;74.26
61113;BME280;47184;57.998;56.184;2023-08-06T02:58:06;99899.00;;;21.73;74.05
61113;BME280;47184;57.998;56.184;2023-08-06T03:00:36;99890.97;;;21.62;74.60
61113;BME280;47184;57.998;56.184;2023-08-06T03:03:03;99910.22;;;21.59;74.63
61113;BME280;47184;57.998;56.184;2023-08-06T03:05:40;99909.06;;;21.55;74.86
61113;BME280;47184;57.998;56.184;2023-08-06T03:08:06;99907.63;;;21.75;74.83
61113;BME280;47184;57.998;56.184;2023-08-06T03:10:34;99892.09;;;21.77;74.35
61113;BME280;47184;57.998;56.184;2023-08-06T03:13:03;99916.91;;;22.08;73.80
61113;BME280;47184;57.998;56.184;2023-08-06T03:15:29;99862.47;;;22.01;73.67
61113;BME280;47184;57.998;56.184;2023-08-06T03:17:56;99907.56;;;22.51;72.60
61113;BME280;47184;57.998;56.184;2023-08-06T03:20:25;99915.31;;;22.64;72.09
61113;BME280;47184;57.998;56.184;2023-08-06T03:22:51;99863.75;;;22.39;71.70
61113;BME280;47184;57.998;56.184;2023-08-06T03:25:17;99914.19;;;22.77;71.42
61113;BME280;47184;57.998;56.184;2023-08-06T03:27:47;99920.78;;;22.98;71.22
61113;BME280;47184;57.998;56.184;2023-08-06T03:30:17;99888.03;;;23.06;70.70
61113;BME280;47184;57.998;56.184;2023-08-06T03:32:43;99916.59;;;23.41;69.80
61113;BME280;47184;57.998;56.184;2023-08-06T03:35:09;99924.75;;;23.46;69.58
61113;BME280;47184;57.998;56.184;2023-08-06T03:37:36;99864.53;;;23.18;69.25
61113;BME280;47184;57.998;56.184;2023-08-06T03:40:02;99937.00;;;23.54;68.93
61113;BME280;47184;57.998;56.184;2023-08-06T03:42:30;99936.53;;;23.40;69.15
61113;BME280;47184;57.998;56.184;2023-08-06T03:44:56;99937.28;;;23.35;69.09
61113;BME280;47184;57.998;56.184;2023-08-06T03:47:22;99932.47;;;23.20;69.15
61113;BME280;47184;57.998;56.184;2023-08-06T03:49:51;99928.63;;;23.16;69.38
61113;BME280;47184;57.998;56.184;2023-08-06T03:52:17;99931.88;;;23.18;69.55
61113;BME280;47184;57.998;56.184;2023-08-06T03:54:43;99925.91;;;23.33;69.24
61113;BME280;47184;57.998;56.184;2023-08-06T03:57:09;99927.28;;;23.53;68.73
61113;BME280;47184;57.998;56.184;2023-08-06T03:59:36;99887.09;;;23.51;68.28
61113;BME280;47184;57.998;56.184;2023-08-06T04:02:03;99917.03;;;23.88;67.51
61113;BME280;47184;57.998;56.184;2023-08-06T04:04:29;99918.00;;;24.04;67.12
61113;BME280;47184;57.998;56.184;2023-08-06T04:06:55;99916.41;;;24.25;66.63
61113;BME280;47184;57.998;56.184;2023-08-06T04:09:23;99919.47;;;24.34;65.86
61113;BME280;47184;57.998;56.184;2023-08-06T04:11:49;99915.53;;;24.41;65.72
61113;BME280;47184;57.998;56.184;2023-08-06T04:14:15;99907.22;;;24.48;65.18
61113;BME280;47184;57.998;56.184;2023-08-06T04:16:41;99880.03;;;24.33;65.04
61113;BME280;47184;57.998;56.184;2023-08-06T04:19:07;99915.84;;;24.77;64.77
61113;BME280;47184;57.998;56.184;2023-08-06T04:21:33;99900.72;;;25.08;63.69
61113;BME280;47184;57.998;56.184;2023-08-06T04:23:59;99889.91;;;25.08;63.03
61113;BME280;47184;57.998;56.184;2023-08-06T04:26:26;99906.53;;;25.22;63.00
61113;BME280;47184;57.998;56.184;2023-08-06T04:28:52;99920.44;;;25.41;62.63
61113;BME280;47184;57.998;56.184;2023-08-06T04:31:19;99937.56;;;25.52;62.28
61113;BME280;47184;57.998;56.184;2023-08-06T04:33:45;99891.16;;;24.95;62.36
61113;BME280;47184;57.998;56.184;2023-08-06T04:36:14;99919.81;;;24.96;62.77
61113;BME280;47184;57.998;56.184;2023-08-06T04:38:40;99937.94;;;25.01;62.54
61113;BME280;47184;57.998;56.184;2023-08-06T04:41:11;99945.53;;;25.04;62.61
61113;BME280;47184;57.998;56.184;2023-08-06T04:43:37;99956.81;;;24.96;62.47
61113;BME280;47184;57.998;56.184;2023-08-06T04:46:03;99941.75;;;24.73;62.70
61113;BME280;47184;57.998;56.184;2023-08-06T04:48:29;99954.25;;;24.79;62.80
61113;BME280;47184;57.998;56.184;2023-08-06T04:50:55;99962.22;;;24.69;62.97
61113;BME280;47184;57.998;56.184;2023-08-06T04:53:21;99959.38;;;24.54;63.25
61113;BME280;47184;57.998;56.184;2023-08-06T04:55:47;99893.56;;;24.11;63.49
61113;BME280;47184;57.998;56.184;2023-08-06T04:58:13;99956.88;;;24.47;63.31
61113;BME280;47184;57.998;56.184;2023-08-06T05:00:39;99954.50;;;24.51;63.24
61113;BME280;47184;57.998;56.184;2023-08-06T05:03:05;99952.63;;;24.78;62.82
61113;BME280;47184;57.998;56.184;2023-08-06T05:05:31;99929.28;;;24.99;62.22
61113;BME280;47184;57.998;56.184;2023-08-06T05:07:58;99945.44;;;25.63;61.41
61113;BME280;47184;57.998;56.184;2023-08-06T05:10:27;99940.25;;;25.94;60.42
61113;BME280;47184;57.998;56.184;2023-08-06T05:12:53;99954.53;;;25.84;60.15
61113;BME280;47184;57.998;56.184;2023-08-06T05:15:19;99882.09;;;25.44;60.18
61113;BME280;47184;57.998;56.184;2023-08-06T05:17:45;99947.06;;;26.02;59.95
61113;BME280;47184;57.998;56.184;2023-08-06T05:20:12;99953.88;;;26.14;59.42
61113;BME280;47184;57.998;56.184;2023-08-06T05:22:38;99937.06;;;26.12;59.32
61113;BME280;47184;57.998;56.184;2023-08-06T05:25:04;99954.44;;;26.27;58.81
61113;BME280;47184;57.998;56.184;2023-08-06T05:27:30;99965.38;;;25.89;58.78
61113;BME280;47184;57.998;56.184;2023-08-06T05:29:56;99959.53;;;25.65;59.47
61113;BME280;47184;57.998;56.184;2023-08-06T05:32:22;99958.88;;;25.48;59.48
61113;BME280;47184;57.998;56.184;2023-08-06T05:34:48;99966.09;;;25.37;59.96
61113;BME280;47184;57.998;56.184;2023-08-06T05:37:14;99961.84;;;25.14;60.18
61113;BME280;47184;57.998;56.184;2023-08-06T05:39:40;99964.19;;;25.06;60.40
61113;BME280;47184;57.998;56.184;2023-08-06T05:42:07;99970.88;;;25.25;60.06
61113;BME280;47184;57.998;56.184;2023-08-06T05:44:33;99954.34;;;25.59;59.33
61113;BME280;47184;57.998;56.184;2023-08-06T05:46:59;99915.88;;;25.47;59.19
61113;BME280;47184;57.998;56.184;2023-08-06T05:49:25;99967.13;;;26.16;58.23
61113;BME280;47184;57.998;56.184;2023-08-06T05:51:51;99966.50;;;26.72;57.18
61113;BME280;47184;57.998;56.184;2023-08-06T05:54:19;99976.06;;;27.10;56.06
61113;BME280;47184;57.998;56.184;2023-08-06T05:56:45;99958.19;;;27.39;55.08
61113;BME280;47184;57.998;56.184;2023-08-06T05:59:11;99950.59;;;27.31;54.44
61113;BME280;47184;57.998;56.184;2023-08-06T06:01:37;99969.56;;;27.41;54.45
61113;BME280;47184;57.998;56.184;2023-08-06T06:04:03;99977.34;;;27.94;53.92
61113;BME280;47184;57.998;56.184;2023-08-06T06:06:29;99969.53;;;28.92;51.55
61113;BME280;47184;57.998;56.184;2023-08-06T06:08:55;99982.91;;;30.09;49.30
61113;BME280;47184;57.998;56.184;2023-08-06T06:11:21;99974.47;;;30.73;47.53
61113;BME280;47184;57.998;56.184;2023-08-06T06:13:51;99976.22;;;31.01;46.00
61113;BME280;47184;57.998;56.184;2023-08-06T06:16:17;99977.31;;;31.19;45.79
61113;BME280;47184;57.998;56.184;2023-08-06T06:18:43;99982.56;;;31.76;44.82
61113;BME280;47184;57.998;56.184;2023-08-06T06:21:10;99969.81;;;33.58;41.82
61113;BME280;47184;57.998;56.184;2023-08-06T06:23:36;99976.91;;;35.16;39.43
61113;BME280;47184;57.998;56.184;2023-08-06T06:26:02;99969.59;;;35.29;38.26
61113;BME280;47184;57.998;56.184;2023-08-06T06:28:28;99961.63;;;34.06;39.86
61113;BME280;47184;57.998;56.184;2023-08-06T06:31:00;99948.78;;;32.77;41.39
61113;BME280;47184;57.998;56.184;2023-08-06T06:33:26;99961.13;;;31.55;43.09
61113;BME280;47184;57.998;56.184;2023-08-06T06:35:52;99959.03;;;30.44;44.31
61113;BME280;47184;57.998;56.184;2023-08-06T06:38:18;99974.16;;;30.93;44.36
61113;BME280;47184;57.998;56.184;2023-08-06T06:40:44;99953.75;;;32.25;42.02
61113;BME280;47184;57.998;56.184;2023-08-06T06:43:10;99963.88;;;32.38;41.36
61113;BME280;47184;57.998;56.184;2023-08-06T06:45:36;99974.38;;;32.59;40.99
61113;BME280;47184;57.998;56.184;2023-08-06T06:48:02;99925.81;;;33.54;39.01
61113;BME280;47184;57.998;56.184;2023-08-06T06:50:28;99946.34;;;35.27;36.18
61113;BME280;47184;57.998;56.184;2023-08-06T06:52:54;99960.16;;;35.94;34.48
61113;BME280;47184;57.998;56.184;2023-08-06T06:55:20;99969.75;;;36.68;33.36
61113;BME280;47184;57.998;56.184;2023-08-06T06:57:46;99950.47;;;37.35;32.25
61113;BME280;47184;57.998;56.184;2023-08-06T07:00:12;99961.56;;;37.14;31.93
61113;BME280;47184;57.998;56.184;2023-08-06T07:02:38;99958.97;;;37.87;31.13
61113;BME280;47184;57.998;56.184;2023-08-06T07:05:05;99957.38;;;38.63;30.07
61113;BME280;47184;57.998;56.184;2023-08-06T07:07:33;99966.00;;;38.90;29.72
61113;BME280;47184;57.998;56.184;2023-08-06T07:09:59;99961.78;;;40.35;28.04
61113;BME280;47184;57.998;56.184;2023-08-06T07:12:25;99958.72;;;41.87;26.17
61113;BME280;47184;57.998;56.184;2023-08-06T07:14:51;99945.69;;;43.15;25.27
61113;BME280;47184;57.998;56.184;2023-08-06T07:17:17;99916.06;;;42.89;24.48
61113;BME280;47184;57.998;56.184;2023-08-06T07:19:43;99957.34;;;41.50;25.73
61113;BME280;47184;57.998;56.184;2023-08-06T07:22:09;99937.34;;;39.86;26.49
61113;BME280;47184;57.998;56.184;2023-08-06T07:24:35;99953.25;;;39.73;26.72
61113;BME280;47184;57.998;56.184;2023-08-06T07:27:01;99956.47;;;39.16;26.98
61113;BME280;47184;57.998;56.184;2023-08-06T07:29:27;99958.13;;;38.36;27.86
61113;BME280;47184;57.998;56.184;2023-08-06T07:31:53;99956.22;;;38.93;27.38
61113;BME280;47184;57.998;56.184;2023-08-06T07:34:21;99941.63;;;38.92;27.15
61113;BME280;47184;57.998;56.184;2023-08-06T07:36:47;99893.84;;;39.67;26.31
61113;BME280;47184;57.998;56.184;2023-08-06T07:39:13;99925.41;;;41.37;24.54
61113;BME280;47184;57.998;56.184;2023-08-06T07:41:39;99929.25;;;42.99;23.12
61113;BME280;47184;57.998;56.184;2023-08-06T07:44:07;99934.91;;;43.47;22.41
61113;BME280;47184;57.998;56.184;2023-08-06T07:46:33;99918.38;;;43.72;22.03
61113;BME280;47184;57.998;56.184;2023-08-06T07:48:58;99932.59;;;43.12;22.80
61113;BME280;47184;57.998;56.184;2023-08-06T07:51:25;99937.28;;;42.10;23.47
61113;BME280;47184;57.998;56.184;2023-08-06T07:53:51;99922.19;;;42.68;23.14
61113;BME280;47184;57.998;56.184;2023-08-06T07:56:17;99926.59;;;44.06;22.02
61113;BME280;47184;57.998;56.184;2023-08-06T07:58:43;99924.16;;;45.02;20.99
61113;BME280;47184;57.998;56.184;2023-08-06T08:01:10;99908.66;;;44.03;21.59
61113;BME280;47184;57.998;56.184;2023-08-06T08:03:36;99885.84;;;42.20;23.41
61113;BME280;47184;57.998;56.184;2023-08-06T08:06:02;99921.13;;;42.19;23.48
61113;BME280;47184;57.998;56.184;2023-08-06T08:08:28;99913.97;;;43.19;22.21
61113;BME280;47184;57.998;56.184;2023-08-06T08:10:54;99911.75;;;43.39;22.13
61113;BME280;47184;57.998;56.184;2023-08-06T08:13:21;99914.66;;;44.12;21.13
61113;BME280;47184;57.998;56.184;2023-08-06T08:15:47;99898.81;;;43.10;22.03
61113;BME280;47184;57.998;56.184;2023-08-06T08:18:13;99891.63;;;43.49;21.57
61113;BME280;47184;57.998;56.184;2023-08-06T08:20:39;99897.75;;;43.25;21.64
61113;BME280;47184;57.998;56.184;2023-08-06T08:23:05;99882.13;;;42.69;22.23
61113;BME280;47184;57.998;56.184;2023-08-06T08:25:31;99898.56;;;41.68;22.90
61113;BME280;47184;57.998;56.184;2023-08-06T08:27:57;99896.88;;;41.60;23.30
61113;BME280;47184;57.998;56.184;2023-08-06T08:30:24;99892.81;;;42.06;22.77
61113;BME280;47184;57.998;56.184;2023-08-06T08:32:51;99869.63;;;43.85;20.93
61113;BME280;47184;57.998;56.184;2023-08-06T08:35:17;99901.88;;;45.63;20.04
61113;BME280;47184;57.998;56.184;2023-08-06T08:37:43;99882.38;;;45.52;19.68
61113;BME280;47184;57.998;56.184;2023-08-06T08:40:09;99874.63;;;44.42;20.46
61113;BME280;47184;57.998;56.184;2023-08-06T08:42:37;99844.63;;;42.18;22.41
61113;BME280;47184;57.998;56.184;2023-08-06T08:45:12;99898.00;;;41.32;22.93
61113;BME280;47184;57.998;56.184;2023-08-06T08:47:42;99885.59;;;39.86;24.79
61113;BME280;47184;57.998;56.184;2023-08-06T08:50:09;99842.75;;;38.98;25.42
61113;BME280;47184;57.998;56.184;2023-08-06T08:52:40;99882.88;;;40.83;24.13
61113;BME280;47184;57.998;56.184;2023-08-06T08:55:09;99878.09;;;40.42;24.27
61113;BME280;47184;57.998;56.184;2023-08-06T08:57:36;99881.88;;;39.63;25.14
61113;BME280;47184;57.998;56.184;2023-08-06T09:00:02;99883.19;;;40.40;24.37
61113;BME280;47184;57.998;56.184;2023-08-06T09:02:32;99831.13;;;41.11;23.17
61113;BME280;47184;57.998;56.184;2023-08-06T09:05:00;99858.00;;;41.56;23.04
61113;BME280;47184;57.998;56.184;2023-08-06T09:07:33;99870.56;;;42.33;22.56
61113;BME280;47184;57.998;56.184;2023-08-06T09:10:02;99880.94;;;43.55;21.67
61113;BME280;47184;57.998;56.184;2023-08-06T09:12:31;99891.03;;;43.85;21.41
61113;BME280;47184;57.998;56.184;2023-08-06T09:14:57;99884.75;;;42.58;22.06
61113;BME280;47184;57.998;56.184;2023-08-06T09:17:24;99838.69;;;40.48;23.50
61113;BME280;47184;57.998;56.184;2023-08-06T09:19:50;99880.81;;;39.52;24.95
61113;BME280;47184;57.998;56.184;2023-08-06T09:22:16;99860.03;;;38.79;25.79
61113;BME280;47184;57.998;56.184;2023-08-06T09:24:42;99882.31;;;39.81;25.04
61113;BME280;47184;57.998;56.184;2023-08-06T09:27:14;99876.56;;;41.29;23.45
61113;BME280;47184;57.998;56.184;2023-08-06T09:29:42;99859.34;;;43.38;21.40
61113;BME280;47184;57.998;56.184;2023-08-06T09:32:08;99885.97;;;45.49;19.49
61113;BME280;47184;57.998;56.184;2023-08-06T09:34:34;99855.59;;;46.75;18.44
61113;BME280;47184;57.998;56.184;2023-08-06T09:37:00;99866.75;;;47.34;17.41
61113;BME280;47184;57.998;56.184;2023-08-06T09:39:28;99877.16;;;48.67;17.09
61113;BME280;47184;57.998;56.184;2023-08-06T09:41:59;99889.31;;;47.09;17.41
61113;BME280;47184;57.998;56.184;2023-08-06T09:44:27;99884.19;;;44.37;19.95
61113;BME280;47184;57.998;56.184;2023-08-06T09:46:55;99889.19;;;41.49;22.28
61113;BME280;47184;57.998;56.184;2023-08-06T09:52:03;99881.88;;;39.00;25.94
61113;BME280;47184;57.998;56.184;2023-08-06T09:54:32;99873.16;;;39.45;25.10
61113;BME280;47184;57.998;56.184;2023-08-06T09:56:58;99867.06;;;40.84;23.25
61113;BME280;47184;57.998;56.184;2023-08-06T09:59:26;99886.06;;;41.05;23.54
61113;BME280;47184;57.998;56.184;2023-08-06T10:01:54;99886.31;;;42.55;22.02
61113;BME280;47184;57.998;56.184;2023-08-06T10:04:21;99874.56;;;42.69;21.79
61113;BME280;47184;57.998;56.184;2023-08-06T10:06:47;99878.41;;;42.24;22.14
61113;BME280;47184;57.998;56.184;2023-08-06T10:09:14;99862.66;;;43.54;20.68
61113;BME280;47184;57.998;56.184;2023-08-06T10:11:42;99876.75;;;45.02;19.77
61113;BME280;47184;57.998;56.184;2023-08-06T10:14:15;99878.38;;;45.35;19.25
61113;BME280;47184;57.998;56.184;2023-08-06T10:16:42;99872.47;;;43.99;20.11
61113;BME280;47184;57.998;56.184;2023-08-06T10:19:12;99854.34;;;42.35;21.32
61113;BME280;47184;57.998;56.184;2023-08-06T10:21:39;99872.38;;;40.93;22.71
61113;BME280;47184;57.998;56.184;2023-08-06T10:24:08;99867.47;;;40.44;23.19
61113;BME280;47184;57.998;56.184;2023-08-06T10:26:37;99879.56;;;40.35;23.34
61113;BME280;47184;57.998;56.184;2023-08-06T10:29:35;99865.38;;;39.82;23.40
61113;BME280;47184;57.998;56.184;2023-08-06T10:32:04;99839.38;;;38.88;24.26
61113;BME280;47184;57.998;56.184;2023-08-06T10:35:09;99835.56;;;37.84;25.43
61113;BME280;47184;57.998;56.184;2023-08-06T10:37:53;99860.28;;;36.86;26.82
61113;BME280;47184;57.998;56.184;2023-08-06T10:40:21;99890.66;;;35.64;30.88
61113;BME280;47184;57.998;56.184;2023-08-06T10:42:48;99896.94;;;32.72;36.97
61113;BME280;47184;57.998;56.184;2023-08-06T10:45:20;99886.94;;;30.55;41.22
61113;BME280;47184;57.998;56.184;2023-08-06T10:47:46;99879.69;;;29.12;44.35
61113;BME280;47184;57.998;56.184;2023-08-06T10:50:14;99887.34;;;28.26;46.81
61113;BME280;47184;57.998;56.184;2023-08-06T10:52:43;99876.97;;;27.79;48.17
61113;BME280;47184;57.998;56.184;2023-08-06T10:55:10;99896.16;;;28.03;48.21
61113;BME280;47184;57.998;56.184;2023-08-06T10:57:36;99896.13;;;28.57;47.23
61113;BME280;47184;57.998;56.184;2023-08-06T11:00:06;99889.22;;;29.09;46.69
61113;BME280;47184;57.998;56.184;2023-08-06T11:02:36;99881.22;;;29.23;46.41
61113;BME280;47184;57.998;56.184;2023-08-06T11:05:22;99912.81;;;29.43;46.27
61113;BME280;47184;57.998;56.184;2023-08-06T11:07:48;99906.63;;;29.37;46.00
61113;BME280;47184;57.998;56.184;2023-08-06T11:10:15;99907.50;;;29.33;46.41
61113;BME280;47184;57.998;56.184;2023-08-06T11:12:41;99908.16;;;29.49;46.42
61113;BME280;47184;57.998;56.184;2023-08-06T11:15:07;99876.50;;;29.58;46.21
61113;BME280;47184;57.998;56.184;2023-08-06T11:17:34;99900.13;;;29.86;46.27
61113;BME280;47184;57.998;56.184;2023-08-06T11:20:02;99897.28;;;29.97;46.21
61113;BME280;47184;57.998;56.184;2023-08-06T11:22:33;99898.75;;;30.08;45.86
61113;BME280;47184;57.998;56.184;2023-08-06T11:24:59;99890.19;;;30.20;45.83
61113;BME280;47184;57.998;56.184;2023-08-06T11:27:28;99892.38;;;30.37;45.32
61113;BME280;47184;57.998;56.184;2023-08-06T11:29:55;99894.94;;;30.66;44.66
61113;BME280;47184;57.998;56.184;2023-08-06T11:32:21;99893.31;;;31.16;43.47
61113;BME280;47184;57.998;56.184;2023-08-06T11:34:47;99893.47;;;33.34;40.31
61113;BME280;47184;57.998;56.184;2023-08-06T11:37:15;99869.31;;;35.91;36.38
61113;BME280;47184;57.998;56.184;2023-08-06T11:39:46;99878.66;;;38.41;32.19
61113;BME280;47184;57.998;56.184;2023-08-06T11:42:14;99883.41;;;39.96;30.51
61113;BME280;47184;57.998;56.184;2023-08-06T11:44:40;99899.25;;;41.84;28.18
61113;BME280;47184;57.998;56.184;2023-08-06T11:47:16;99874.72;;;43.24;25.85
61113;BME280;47184;57.998;56.184;2023-08-06T11:49:49;99902.56;;;44.60;24.02
61113;BME280;47184;57.998;56.184;2023-08-06T11:54:47;99889.81;;;46.19;22.07
61113;BME280;47184;57.998;56.184;2023-08-06T11:57:15;99896.94;;;44.38;22.99
61113;BME280;47184;57.998;56.184;2023-08-06T11:59:41;99882.47;;;43.04;23.67
61113;BME280;47184;57.998;56.184;2023-08-06T12:02:09;99885.44;;;43.78;23.09
61113;BME280;47184;57.998;56.184;2023-08-06T12:04:58;99894.72;;;45.15;20.98
61113;BME280;47184;57.998;56.184;2023-08-06T12:07:31;99887.03;;;46.05;20.34
61113;BME280;47184;57.998;56.184;2023-08-06T12:09:58;99890.66;;;47.38;19.41
61113;BME280;47184;57.998;56.184;2023-08-06T12:12:24;99894.72;;;48.44;18.37
61113;BME280;47184;57.998;56.184;2023-08-06T12:14:52;99901.38;;;49.07;18.21
61113;BME280;47184;57.998;56.184;2023-08-06T12:17:18;99867.06;;;47.39;18.63
61113;BME280;47184;57.998;56.184;2023-08-06T12:19:45;99885.56;;;46.71;19.29
61113;BME280;47184;57.998;56.184;2023-08-06T12:22:12;99896.16;;;46.16;19.50
61113;BME280;47184;57.998;56.184;2023-08-06T12:24:41;99876.34;;;44.82;20.51
61113;BME280;47184;57.998;56.184;2023-08-06T12:27:07;99877.66;;;43.01;21.58
61113;BME280;47184;57.998;56.184;2023-08-06T12:29:33;99896.69;;;41.03;24.00
61113;BME280;47184;57.998;56.184;2023-08-06T12:31:59;99897.44;;;38.92;27.00
61113;BME280;47184;57.998;56.184;2023-08-06T12:34:25;99897.66;;;35.83;33.45
61113;BME280;47184;57.998;56.184;2023-08-06T12:36:52;99870.63;;;33.38;36.57
61113;BME280;47184;57.998;56.184;2023-08-06T12:39:18;99908.94;;;32.12;39.64
61113;BME280;47184;57.998;56.184;2023-08-06T12:41:46;99906.31;;;31.38;40.75
61113;BME280;47184;57.998;56.184;2023-08-06T12:44:12;99887.66;;;30.80;41.75
61113;BME280;47184;57.998;56.184;2023-08-06T12:46:38;99906.72;;;30.61;43.12
61113;BME280;47184;57.998;56.184;2023-08-06T12:49:05;99910.16;;;30.34;44.08
61113;BME280;47184;57.998;56.184;2023-08-06T12:51:32;99892.63;;;29.97;45.24
61113;BME280;47184;57.998;56.184;2023-08-06T12:54:00;99905.25;;;29.88;46.01
61113;BME280;47184;57.998;56.184;2023-08-06T12:56:26;99901.88;;;29.77;46.16
61113;BME280;47184;57.998;56.184;2023-08-06T12:58:53;99898.31;;;29.53;46.50
61113;BME280;47184;57.998;56.184;2023-08-06T13:01:19;99900.03;;;29.44;46.49